sensor_id;sensor_type;location;lat;lon;timestamp;P1;durP1;ratioP1;P2;durP2;ratioP2
65174;SDS011;51761;42.126;24.752;2024-03-02T00:00:01;67.90;;;29.10;;
65174;SDS011;51761;42.126;24.752;2024-03-02T00:02:34;58.58;;;25.98;;
65174;SDS011;51761;42.126;24.752;2024-03-02T00:04:59;76.68;;;29.17;;
65174;SDS011;51761;42.126;24.752;2024-03-02T00:07:24;64.35;;;29.27;;
65174;SDS011;51761;42.126;24.752;2024-03-02T00:09:52;68.32;;;27.48;;
65174;SDS011;51761;42.126;24.752;2024-03-02T00:12:18;70.13;;;28.10;;
65174;SDS011;51761;42.126;24.752;2024-03-02T00:14:43;69.10;;;27.55;;
65174;SDS011;51761;42.126;24.752;2024-03-02T00:17:09;70.50;;;29.67;;
65174;SDS011;51761;42.126;24.752;2024-03-02T00:19:40;70.80;;;28.35;;
65174;SDS011;51761;42.126;24.752;2024-03-02T00:22:05;65.05;;;26.88;;
65174;SDS011;51761;42.126;24.752;2024-03-02T00:24:33;70.90;;;28.35;;
65174;SDS011;51761;42.126;24.752;2024-03-02T00:26:59;73.45;;;29.80;;
65174;SDS011;51761;42.126;24.752;2024-03-02T00:29:24;71.10;;;28.42;;
65174;SDS011;51761;42.126;24.752;2024-03-02T00:31:50;66.38;;;27.90;;
65174;SDS011;51761;42.126;24.752;2024-03-02T00:34:16;80.90;;;28.83;;
65174;SDS011;51761;42.126;24.752;2024-03-02T00:36:42;73.45;;;28.45;;
65174;SDS011;51761;42.126;24.752;2024-03-02T00:39:07;75.45;;;30.77;;
65174;SDS011;51761;42.126;24.752;2024-03-02T00:41:33;64.95;;;29.10;;
65174;SDS011;51761;42.126;24.752;2024-03-02T00:44:02;70.93;;;29.55;;
65174;SDS011;51761;42.126;24.752;2024-03-02T00:46:49;69.50;;;27.83;;
65174;SDS011;51761;42.126;24.752;2024-03-02T00:49:18;72.57;;;29.58;;
65174;SDS011;51761;42.126;24.752;2024-03-02T00:51:46;82.00;;;30.05;;
65174;SDS011;51761;42.126;24.752;2024-03-02T00:54:11;83.95;;;31.95;;
65174;SDS011;51761;42.126;24.752;2024-03-02T00:56:37;80.53;;;31.42;;
65174;SDS011;51761;42.126;24.752;2024-03-02T00:59:03;77.75;;;28.75;;
65174;SDS011;51761;42.126;24.752;2024-03-02T01:01:28;93.13;;;32.13;;
65174;SDS011;51761;42.126;24.752;2024-03-02T01:03:53;80.68;;;32.08;;
65174;SDS011;51761;42.126;24.752;2024-03-02T01:06:19;85.90;;;32.35;;
65174;SDS011;51761;42.126;24.752;2024-03-02T01:08:44;90.28;;;33.03;;
65174;SDS011;51761;42.126;24.752;2024-03-02T01:11:09;83.93;;;31.77;;
65174;SDS011;51761;42.126;24.752;2024-03-02T01:13:35;99.47;;;36.05;;
65174;SDS011;51761;42.126;24.752;2024-03-02T01:16:00;85.88;;;33.13;;
65174;SDS011;51761;42.126;24.752;2024-03-02T01:18:26;88.65;;;33.40;;
65174;SDS011;51761;42.126;24.752;2024-03-02T01:20:51;103.40;;;34.00;;
65174;SDS011;51761;42.126;24.752;2024-03-02T01:23:18;104.13;;;33.75;;
65174;SDS011;51761;42.126;24.752;2024-03-02T01:25:44;95.13;;;33.33;;
65174;SDS011;51761;42.126;24.752;2024-03-02T01:28:10;104.05;;;34.97;;
65174;SDS011;51761;42.126;24.752;2024-03-02T01:30:35;109.45;;;35.83;;
65174;SDS011;51761;42.126;24.752;2024-03-02T01:33:01;103.65;;;34.70;;
65174;SDS011;51761;42.126;24.752;2024-03-02T01:35:27;108.22;;;36.70;;
65174;SDS011;51761;42.126;24.752;2024-03-02T01:37:52;123.72;;;38.75;;
65174;SDS011;51761;42.126;24.752;2024-03-02T01:40:18;119.85;;;37.88;;
65174;SDS011;51761;42.126;24.752;2024-03-02T01:42:43;123.57;;;37.20;;
65174;SDS011;51761;42.126;24.752;2024-03-02T01:45:09;131.02;;;38.47;;
65174;SDS011;51761;42.126;24.752;2024-03-02T01:47:34;130.55;;;39.95;;
65174;SDS011;51761;42.126;24.752;2024-03-02T01:50:00;122.18;;;36.45;;
65174;SDS011;51761;42.126;24.752;2024-03-02T01:52:25;131.45;;;38.85;;
65174;SDS011;51761;42.126;24.752;2024-03-02T01:54:51;139.60;;;38.60;;
65174;SDS011;51761;42.126;24.752;2024-03-02T01:57:16;135.45;;;39.58;;
65174;SDS011;51761;42.126;24.752;2024-03-02T01:59:42;127.53;;;37.95;;
65174;SDS011;51761;42.126;24.752;2024-03-02T02:02:07;127.40;;;39.30;;
65174;SDS011;51761;42.126;24.752;2024-03-02T02:04:33;130.00;;;38.25;;
65174;SDS011;51761;42.126;24.752;2024-03-02T02:06:58;131.52;;;39.20;;
65174;SDS011;51761;42.126;24.752;2024-03-02T02:09:24;121.57;;;37.13;;
65174;SDS011;51761;42.126;24.752;2024-03-02T02:11:50;108.93;;;35.95;;
65174;SDS011;51761;42.126;24.752;2024-03-02T02:14:16;122.00;;;37.22;;
65174;SDS011;51761;42.126;24.752;2024-03-02T02:16:41;112.00;;;34.42;;
65174;SDS011;51761;42.126;24.752;2024-03-02T02:19:07;101.43;;;33.30;;
65174;SDS011;51761;42.126;24.752;2024-03-02T02:21:32;109.38;;;35.55;;
65174;SDS011;51761;42.126;24.752;2024-03-02T02:23:58;102.78;;;34.72;;
65174;SDS011;51761;42.126;24.752;2024-03-02T02:26:23;98.10;;;33.92;;
65174;SDS011;51761;42.126;24.752;2024-03-02T02:28:49;90.30;;;32.63;;
65174;SDS011;51761;42.126;24.752;2024-03-02T02:31:14;98.75;;;32.08;;
65174;SDS011;51761;42.126;24.752;2024-03-02T02:33:40;90.00;;;30.42;;
65174;SDS011;51761;42.126;24.752;2024-03-02T02:36:05;90.32;;;31.55;;
65174;SDS011;51761;42.126;24.752;2024-03-02T02:38:31;91.97;;;34.38;;
65174;SDS011;51761;42.126;24.752;2024-03-02T02:40:58;84.72;;;33.60;;
65174;SDS011;51761;42.126;24.752;2024-03-02T02:43:23;102.32;;;34.90;;
65174;SDS011;51761;42.126;24.752;2024-03-02T02:45:48;94.65;;;32.40;;
65174;SDS011;51761;42.126;24.752;2024-03-02T02:48:14;100.15;;;34.25;;
65174;SDS011;51761;42.126;24.752;2024-03-02T02:50:39;92.65;;;33.15;;
65174;SDS011;51761;42.126;24.752;2024-03-02T02:53:05;85.20;;;31.88;;
65174;SDS011;51761;42.126;24.752;2024-03-02T02:55:31;80.75;;;31.00;;
65174;SDS011;51761;42.126;24.752;2024-03-02T02:57:56;82.18;;;30.27;;
65174;SDS011;51761;42.126;24.752;2024-03-02T03:00:21;84.75;;;29.83;;
65174;SDS011;51761;42.126;24.752;2024-03-02T03:02:48;90.82;;;31.77;;
65174;SDS011;51761;42.126;24.752;2024-03-02T03:05:14;78.35;;;30.35;;
65174;SDS011;51761;42.126;24.752;2024-03-02T03:07:40;76.40;;;29.25;;
65174;SDS011;51761;42.126;24.752;2024-03-02T03:10:06;77.95;;;31.05;;
65174;SDS011;51761;42.126;24.752;2024-03-02T03:12:32;77.70;;;30.63;;
65174;SDS011;51761;42.126;24.752;2024-03-02T03:14:57;69.93;;;28.17;;
65174;SDS011;51761;42.126;24.752;2024-03-02T03:17:22;94.07;;;30.25;;
65174;SDS011;51761;42.126;24.752;2024-03-02T03:19:48;81.82;;;30.58;;
65174;SDS011;51761;42.126;24.752;2024-03-02T03:22:13;73.85;;;30.75;;
65174;SDS011;51761;42.126;24.752;2024-03-02T03:24:39;72.22;;;29.17;;
65174;SDS011;51761;42.126;24.752;2024-03-02T03:27:04;75.05;;;29.48;;
65174;SDS011;51761;42.126;24.752;2024-03-02T03:29:29;81.07;;;27.42;;
65174;SDS011;51761;42.126;24.752;2024-03-02T03:31:55;72.85;;;27.70;;
65174;SDS011;51761;42.126;24.752;2024-03-02T03:34:20;75.30;;;28.73;;
65174;SDS011;51761;42.126;24.752;2024-03-02T03:36:45;78.55;;;29.95;;
65174;SDS011;51761;42.126;24.752;2024-03-02T03:39:11;73.20;;;29.15;;
65174;SDS011;51761;42.126;24.752;2024-03-02T03:41:36;77.20;;;30.08;;
65174;SDS011;51761;42.126;24.752;2024-03-02T03:44:01;76.60;;;31.40;;
65174;SDS011;51761;42.126;24.752;2024-03-02T03:46:26;68.80;;;28.38;;
65174;SDS011;51761;42.126;24.752;2024-03-02T03:48:52;79.47;;;29.38;;
65174;SDS011;51761;42.126;24.752;2024-03-02T03:51:17;74.78;;;28.90;;
65174;SDS011;51761;42.126;24.752;2024-03-02T03:53:42;75.03;;;28.55;;
65174;SDS011;51761;42.126;24.752;2024-03-02T03:56:08;81.80;;;28.45;;
65174;SDS011;51761;42.126;24.752;2024-03-02T03:58:33;84.45;;;29.40;;
65174;SDS011;51761;42.126;24.752;2024-03-02T04:00:58;69.45;;;26.98;;
65174;SDS011;51761;42.126;24.752;2024-03-02T04:03:24;82.07;;;29.30;;
65174;SDS011;51761;42.126;24.752;2024-03-02T04:05:50;82.80;;;28.75;;
65174;SDS011;51761;42.126;24.752;2024-03-02T04:08:15;82.68;;;30.70;;
65174;SDS011;51761;42.126;24.752;2024-03-02T04:10:41;82.05;;;30.45;;
65174;SDS011;51761;42.126;24.752;2024-03-02T04:13:07;94.35;;;30.90;;
65174;SDS011;51761;42.126;24.752;2024-03-02T04:15:32;75.65;;;29.10;;
65174;SDS011;51761;42.126;24.752;2024-03-02T04:17:57;82.03;;;29.25;;
65174;SDS011;51761;42.126;24.752;2024-03-02T04:20:23;86.25;;;30.80;;
65174;SDS011;51761;42.126;24.752;2024-03-02T04:22:48;75.40;;;29.38;;
65174;SDS011;51761;42.126;24.752;2024-03-02T04:25:13;84.47;;;30.50;;
65174;SDS011;51761;42.126;24.752;2024-03-02T04:27:39;75.70;;;30.80;;
65174;SDS011;51761;42.126;24.752;2024-03-02T04:30:04;80.88;;;29.20;;
65174;SDS011;51761;42.126;24.752;2024-03-02T04:32:30;85.22;;;30.80;;
65174;SDS011;51761;42.126;24.752;2024-03-02T04:34:56;80.70;;;30.48;;
65174;SDS011;51761;42.126;24.752;2024-03-02T04:37:21;94.15;;;32.13;;
65174;SDS011;51761;42.126;24.752;2024-03-02T04:39:47;106.80;;;30.85;;
65174;SDS011;51761;42.126;24.752;2024-03-02T04:42:12;105.03;;;33.30;;
65174;SDS011;51761;42.126;24.752;2024-03-02T04:44:38;99.50;;;31.63;;
65174;SDS011;51761;42.126;24.752;2024-03-02T04:47:03;102.38;;;31.75;;
65174;SDS011;51761;42.126;24.752;2024-03-02T04:49:29;104.15;;;32.05;;
65174;SDS011;51761;42.126;24.752;2024-03-02T04:51:55;89.40;;;30.45;;
65174;SDS011;51761;42.126;24.752;2024-03-02T04:54:20;112.35;;;33.05;;
65174;SDS011;51761;42.126;24.752;2024-03-02T04:56:45;98.30;;;29.45;;
65174;SDS011;51761;42.126;24.752;2024-03-02T04:59:15;98.13;;;30.00;;
65174;SDS011;51761;42.126;24.752;2024-03-02T05:01:41;82.43;;;27.83;;
65174;SDS011;51761;42.126;24.752;2024-03-02T05:04:06;86.65;;;30.60;;
65174;SDS011;51761;42.126;24.752;2024-03-02T05:06:31;86.45;;;29.35;;
65174;SDS011;51761;42.126;24.752;2024-03-02T05:08:57;95.05;;;30.58;;
65174;SDS011;51761;42.126;24.752;2024-03-02T05:11:22;91.72;;;29.70;;
65174;SDS011;51761;42.126;24.752;2024-03-02T05:14:07;95.88;;;30.25;;
65174;SDS011;51761;42.126;24.752;2024-03-02T05:16:35;92.85;;;30.65;;
65174;SDS011;51761;42.126;24.752;2024-03-02T05:19:01;88.35;;;30.42;;
65174;SDS011;51761;42.126;24.752;2024-03-02T05:21:27;88.25;;;30.23;;
65174;SDS011;51761;42.126;24.752;2024-03-02T05:23:52;91.80;;;28.98;;
65174;SDS011;51761;42.126;24.752;2024-03-02T05:26:17;88.80;;;28.42;;
65174;SDS011;51761;42.126;24.752;2024-03-02T05:28:43;82.30;;;30.13;;
65174;SDS011;51761;42.126;24.752;2024-03-02T05:31:11;92.43;;;29.45;;
65174;SDS011;51761;42.126;24.752;2024-03-02T05:33:39;87.10;;;29.10;;
65174;SDS011;51761;42.126;24.752;2024-03-02T05:36:05;77.03;;;26.30;;
65174;SDS011;51761;42.126;24.752;2024-03-02T05:38:31;94.00;;;28.83;;
65174;SDS011;51761;42.126;24.752;2024-03-02T05:40:56;77.28;;;29.33;;
65174;SDS011;51761;42.126;24.752;2024-03-02T05:43:21;91.55;;;28.73;;
65174;SDS011;51761;42.126;24.752;2024-03-02T05:45:47;88.25;;;29.35;;
65174;SDS011;51761;42.126;24.752;2024-03-02T05:48:12;93.22;;;29.48;;
65174;SDS011;51761;42.126;24.752;2024-03-02T05:50:38;98.57;;;29.27;;
65174;SDS011;51761;42.126;24.752;2024-03-02T05:53:03;96.10;;;29.70;;
65174;SDS011;51761;42.126;24.752;2024-03-02T05:55:28;85.65;;;29.50;;
65174;SDS011;51761;42.126;24.752;2024-03-02T05:57:54;85.80;;;28.35;;
65174;SDS011;51761;42.126;24.752;2024-03-02T06:00:31;80.10;;;27.17;;
65174;SDS011;51761;42.126;24.752;2024-03-02T06:02:57;87.07;;;27.42;;
65174;SDS011;51761;42.126;24.752;2024-03-02T06:05:23;79.53;;;27.52;;
65174;SDS011;51761;42.126;24.752;2024-03-02T06:07:48;87.70;;;28.83;;
65174;SDS011;51761;42.126;24.752;2024-03-02T06:10:13;96.50;;;29.48;;
65174;SDS011;51761;42.126;24.752;2024-03-02T06:12:39;79.35;;;27.23;;
65174;SDS011;51761;42.126;24.752;2024-03-02T06:15:05;91.35;;;28.30;;
65174;SDS011;51761;42.126;24.752;2024-03-02T06:17:30;95.82;;;30.83;;
65174;SDS011;51761;42.126;24.752;2024-03-02T06:19:55;80.78;;;29.20;;
65174;SDS011;51761;42.126;24.752;2024-03-02T06:22:21;77.20;;;24.77;;
65174;SDS011;51761;42.126;24.752;2024-03-02T06:24:48;73.32;;;26.17;;
65174;SDS011;51761;42.126;24.752;2024-03-02T06:27:13;78.03;;;25.75;;
65174;SDS011;51761;42.126;24.752;2024-03-02T06:29:38;81.68;;;27.10;;
65174;SDS011;51761;42.126;24.752;2024-03-02T06:32:04;79.72;;;26.65;;
65174;SDS011;51761;42.126;24.752;2024-03-02T06:34:29;69.53;;;24.73;;
65174;SDS011;51761;42.126;24.752;2024-03-02T06:36:54;68.45;;;24.15;;
65174;SDS011;51761;42.126;24.752;2024-03-02T06:39:20;63.90;;;24.25;;
65174;SDS011;51761;42.126;24.752;2024-03-02T06:41:46;68.63;;;23.15;;
65174;SDS011;51761;42.126;24.752;2024-03-02T06:44:12;56.63;;;22.67;;
65174;SDS011;51761;42.126;24.752;2024-03-02T06:46:37;70.03;;;23.52;;
65174;SDS011;51761;42.126;24.752;2024-03-02T06:49:03;61.10;;;21.95;;
65174;SDS011;51761;42.126;24.752;2024-03-02T06:51:29;66.53;;;22.25;;
65174;SDS011;51761;42.126;24.752;2024-03-02T06:53:54;59.03;;;23.02;;
65174;SDS011;51761;42.126;24.752;2024-03-02T06:56:20;60.67;;;21.55;;
65174;SDS011;51761;42.126;24.752;2024-03-02T06:58:45;66.10;;;22.73;;
65174;SDS011;51761;42.126;24.752;2024-03-02T07:01:11;68.60;;;24.10;;
65174;SDS011;51761;42.126;24.752;2024-03-02T07:03:36;57.85;;;22.15;;
65174;SDS011;51761;42.126;24.752;2024-03-02T07:06:02;64.93;;;23.88;;
65174;SDS011;51761;42.126;24.752;2024-03-02T07:08:28;58.95;;;22.02;;
65174;SDS011;51761;42.126;24.752;2024-03-02T07:10:53;57.80;;;21.23;;
65174;SDS011;51761;42.126;24.752;2024-03-02T07:13:18;61.35;;;23.08;;
65174;SDS011;51761;42.126;24.752;2024-03-02T07:15:44;58.80;;;22.48;;
65174;SDS011;51761;42.126;24.752;2024-03-02T07:18:12;58.85;;;21.95;;
65174;SDS011;51761;42.126;24.752;2024-03-02T07:20:37;60.17;;;22.60;;
65174;SDS011;51761;42.126;24.752;2024-03-02T07:23:04;60.67;;;22.08;;
65174;SDS011;51761;42.126;24.752;2024-03-02T07:25:29;63.78;;;23.95;;
65174;SDS011;51761;42.126;24.752;2024-03-02T07:27:55;57.65;;;22.13;;
65174;SDS011;51761;42.126;24.752;2024-03-02T07:30:20;65.55;;;24.73;;
65174;SDS011;51761;42.126;24.752;2024-03-02T07:32:46;62.97;;;24.58;;
65174;SDS011;51761;42.126;24.752;2024-03-02T07:35:14;57.90;;;21.83;;
65174;SDS011;51761;42.126;24.752;2024-03-02T07:37:40;60.03;;;24.17;;
65174;SDS011;51761;42.126;24.752;2024-03-02T07:40:06;69.28;;;24.17;;
65174;SDS011;51761;42.126;24.752;2024-03-02T07:42:34;67.63;;;24.35;;
65174;SDS011;51761;42.126;24.752;2024-03-02T07:44:59;64.35;;;23.02;;
65174;SDS011;51761;42.126;24.752;2024-03-02T07:47:25;57.60;;;22.27;;
65174;SDS011;51761;42.126;24.752;2024-03-02T07:49:50;62.58;;;23.10;;
65174;SDS011;51761;42.126;24.752;2024-03-02T07:52:15;75.60;;;26.25;;
65174;SDS011;51761;42.126;24.752;2024-03-02T07:54:41;76.80;;;25.30;;
65174;SDS011;51761;42.126;24.752;2024-03-02T07:57:06;126.93;;;52.80;;
65174;SDS011;51761;42.126;24.752;2024-03-02T07:59:31;60.13;;;24.30;;
65174;SDS011;51761;42.126;24.752;2024-03-02T08:01:57;63.30;;;23.20;;
65174;SDS011;51761;42.126;24.752;2024-03-02T08:04:23;58.65;;;21.67;;
65174;SDS011;51761;42.126;24.752;2024-03-02T08:06:48;60.97;;;22.58;;
65174;SDS011;51761;42.126;24.752;2024-03-02T08:09:14;65.85;;;25.20;;
65174;SDS011;51761;42.126;24.752;2024-03-02T08:11:39;81.38;;;26.33;;
65174;SDS011;51761;42.126;24.752;2024-03-02T08:14:04;72.35;;;25.85;;
65174;SDS011;51761;42.126;24.752;2024-03-02T08:16:29;65.10;;;25.58;;
65174;SDS011;51761;42.126;24.752;2024-03-02T08:18:55;83.63;;;29.17;;
65174;SDS011;51761;42.126;24.752;2024-03-02T08:21:23;66.03;;;25.85;;
65174;SDS011;51761;42.126;24.752;2024-03-02T08:23:48;72.15;;;28.90;;
65174;SDS011;51761;42.126;24.752;2024-03-02T08:26:13;68.35;;;25.17;;
65174;SDS011;51761;42.126;24.752;2024-03-02T08:28:39;53.83;;;23.90;;
65174;SDS011;51761;42.126;24.752;2024-03-02T08:31:08;47.63;;;22.30;;
65174;SDS011;51761;42.126;24.752;2024-03-02T08:33:34;49.15;;;20.23;;
65174;SDS011;51761;42.126;24.752;2024-03-02T08:36:00;39.38;;;18.45;;
65174;SDS011;51761;42.126;24.752;2024-03-02T08:38:25;41.67;;;17.88;;
65174;SDS011;51761;42.126;24.752;2024-03-02T08:40:51;42.53;;;20.05;;
65174;SDS011;51761;42.126;24.752;2024-03-02T08:43:16;40.40;;;18.10;;
65174;SDS011;51761;42.126;24.752;2024-03-02T08:45:42;43.63;;;19.13;;
65174;SDS011;51761;42.126;24.752;2024-03-02T08:48:07;49.95;;;19.35;;
65174;SDS011;51761;42.126;24.752;2024-03-02T08:50:36;44.80;;;19.90;;
65174;SDS011;51761;42.126;24.752;2024-03-02T08:53:02;45.63;;;19.20;;
65174;SDS011;51761;42.126;24.752;2024-03-02T08:55:27;49.00;;;20.33;;
65174;SDS011;51761;42.126;24.752;2024-03-02T08:57:52;57.05;;;22.75;;
65174;SDS011;51761;42.126;24.752;2024-03-02T09:00:18;52.28;;;22.52;;
65174;SDS011;51761;42.126;24.752;2024-03-02T09:02:44;48.08;;;19.92;;
65174;SDS011;51761;42.126;24.752;2024-03-02T09:05:09;48.10;;;18.58;;
65174;SDS011;51761;42.126;24.752;2024-03-02T09:07:34;41.75;;;17.30;;
65174;SDS011;51761;42.126;24.752;2024-03-02T09:10:00;47.63;;;19.88;;
65174;SDS011;51761;42.126;24.752;2024-03-02T09:12:25;40.95;;;17.33;;
65174;SDS011;51761;42.126;24.752;2024-03-02T09:14:51;43.60;;;19.73;;
65174;SDS011;51761;42.126;24.752;2024-03-02T09:17:16;53.58;;;20.38;;
65174;SDS011;51761;42.126;24.752;2024-03-02T09:19:41;49.55;;;20.38;;
65174;SDS011;51761;42.126;24.752;2024-03-02T09:22:07;47.88;;;19.80;;
65174;SDS011;51761;42.126;24.752;2024-03-02T09:24:32;46.50;;;19.63;;
65174;SDS011;51761;42.126;24.752;2024-03-02T09:27:00;48.65;;;20.60;;
65174;SDS011;51761;42.126;24.752;2024-03-02T09:29:25;53.60;;;19.75;;
65174;SDS011;51761;42.126;24.752;2024-03-02T09:31:51;45.20;;;19.83;;
65174;SDS011;51761;42.126;24.752;2024-03-02T09:34:16;50.58;;;19.40;;
65174;SDS011;51761;42.126;24.752;2024-03-02T09:36:42;48.42;;;19.73;;
65174;SDS011;51761;42.126;24.752;2024-03-02T09:39:07;47.38;;;20.52;;
65174;SDS011;51761;42.126;24.752;2024-03-02T09:41:34;50.20;;;19.58;;
65174;SDS011;51761;42.126;24.752;2024-03-02T09:44:00;47.50;;;20.20;;
65174;SDS011;51761;42.126;24.752;2024-03-02T09:46:25;52.58;;;20.17;;
65174;SDS011;51761;42.126;24.752;2024-03-02T09:48:51;56.83;;;21.88;;
65174;SDS011;51761;42.126;24.752;2024-03-02T09:51:16;39.42;;;19.42;;
65174;SDS011;51761;42.126;24.752;2024-03-02T09:53:44;46.60;;;20.92;;
65174;SDS011;51761;42.126;24.752;2024-03-02T09:56:10;54.95;;;22.83;;
65174;SDS011;51761;42.126;24.752;2024-03-02T09:58:35;50.00;;;21.65;;
65174;SDS011;51761;42.126;24.752;2024-03-02T10:01:01;58.58;;;23.13;;
65174;SDS011;51761;42.126;24.752;2024-03-02T10:03:26;52.60;;;22.92;;
65174;SDS011;51761;42.126;24.752;2024-03-02T10:05:54;62.17;;;24.50;;
65174;SDS011;51761;42.126;24.752;2024-03-02T10:08:19;61.88;;;23.08;;
65174;SDS011;51761;42.126;24.752;2024-03-02T10:10:44;57.28;;;23.73;;
65174;SDS011;51761;42.126;24.752;2024-03-02T10:13:10;59.13;;;23.65;;
65174;SDS011;51761;42.126;24.752;2024-03-02T10:15:36;59.45;;;24.63;;
65174;SDS011;51761;42.126;24.752;2024-03-02T10:18:03;52.97;;;21.98;;
65174;SDS011;51761;42.126;24.752;2024-03-02T10:20:28;54.80;;;23.63;;
65174;SDS011;51761;42.126;24.752;2024-03-02T10:23:11;60.30;;;24.10;;
65174;SDS011;51761;42.126;24.752;2024-03-02T10:25:37;53.55;;;22.95;;
65174;SDS011;51761;42.126;24.752;2024-03-02T10:28:02;57.60;;;22.38;;
65174;SDS011;51761;42.126;24.752;2024-03-02T10:30:31;53.38;;;22.73;;
65174;SDS011;51761;42.126;24.752;2024-03-02T10:32:56;55.58;;;24.25;;
65174;SDS011;51761;42.126;24.752;2024-03-02T10:35:22;46.92;;;23.33;;
65174;SDS011;51761;42.126;24.752;2024-03-02T10:37:48;52.35;;;24.83;;
65174;SDS011;51761;42.126;24.752;2024-03-02T10:40:14;52.33;;;25.00;;
65174;SDS011;51761;42.126;24.752;2024-03-02T10:42:39;59.00;;;24.95;;
65174;SDS011;51761;42.126;24.752;2024-03-02T10:45:06;55.60;;;26.63;;
65174;SDS011;51761;42.126;24.752;2024-03-02T10:47:33;49.60;;;23.98;;
65174;SDS011;51761;42.126;24.752;2024-03-02T10:49:59;55.28;;;24.80;;
65174;SDS011;51761;42.126;24.752;2024-03-02T10:52:24;55.55;;;26.00;;
65174;SDS011;51761;42.126;24.752;2024-03-02T10:54:49;61.22;;;25.75;;
65174;SDS011;51761;42.126;24.752;2024-03-02T10:57:15;60.55;;;26.83;;
65174;SDS011;51761;42.126;24.752;2024-03-02T10:59:48;52.85;;;25.60;;
65174;SDS011;51761;42.126;24.752;2024-03-02T11:02:16;48.65;;;23.83;;
65174;SDS011;51761;42.126;24.752;2024-03-02T11:04:42;62.63;;;26.73;;
65174;SDS011;51761;42.126;24.752;2024-03-02T11:07:09;55.45;;;27.05;;
65174;SDS011;51761;42.126;24.752;2024-03-02T11:09:36;57.28;;;26.42;;
65174;SDS011;51761;42.126;24.752;2024-03-02T11:17:13;65.57;;;26.40;;
65174;SDS011;51761;42.126;24.752;2024-03-02T11:19:40;58.90;;;28.08;;
65174;SDS011;51761;42.126;24.752;2024-03-02T11:22:06;61.30;;;27.48;;
65174;SDS011;51761;42.126;24.752;2024-03-02T11:24:32;64.40;;;30.55;;
65174;SDS011;51761;42.126;24.752;2024-03-02T11:26:58;54.20;;;27.08;;
65174;SDS011;51761;42.126;24.752;2024-03-02T11:32:02;48.33;;;23.38;;
65174;SDS011;51761;42.126;24.752;2024-03-02T11:36:56;51.03;;;25.35;;
65174;SDS011;51761;42.126;24.752;2024-03-02T11:39:21;41.42;;;22.33;;
65174;SDS011;51761;42.126;24.752;2024-03-02T11:41:46;47.97;;;23.80;;
65174;SDS011;51761;42.126;24.752;2024-03-02T11:44:12;49.80;;;26.08;;
65174;SDS011;51761;42.126;24.752;2024-03-02T11:46:39;49.38;;;24.77;;
65174;SDS011;51761;42.126;24.752;2024-03-02T11:49:04;54.15;;;26.95;;
65174;SDS011;51761;42.126;24.752;2024-03-02T11:51:30;49.25;;;25.38;;
65174;SDS011;51761;42.126;24.752;2024-03-02T11:53:56;51.08;;;25.77;;
65174;SDS011;51761;42.126;24.752;2024-03-02T11:56:23;45.60;;;25.90;;
65174;SDS011;51761;42.126;24.752;2024-03-02T11:58:51;39.13;;;21.35;;
65174;SDS011;51761;42.126;24.752;2024-03-02T12:01:18;46.42;;;24.95;;
65174;SDS011;51761;42.126;24.752;2024-03-02T12:03:44;41.72;;;22.92;;
65174;SDS011;51761;42.126;24.752;2024-03-02T12:06:10;41.15;;;22.80;;
65174;SDS011;51761;42.126;24.752;2024-03-02T12:08:36;40.60;;;22.60;;
65174;SDS011;51761;42.126;24.752;2024-03-02T12:11:02;42.00;;;21.50;;
65174;SDS011;51761;42.126;24.752;2024-03-02T12:13:27;38.35;;;21.88;;
65174;SDS011;51761;42.126;24.752;2024-03-02T12:15:53;41.00;;;22.75;;
65174;SDS011;51761;42.126;24.752;2024-03-02T12:18:20;38.47;;;20.10;;
65174;SDS011;51761;42.126;24.752;2024-03-02T12:20:45;38.08;;;20.20;;
65174;SDS011;51761;42.126;24.752;2024-03-02T12:23:10;32.63;;;18.73;;
65174;SDS011;51761;42.126;24.752;2024-03-02T12:25:36;37.95;;;20.75;;
65174;SDS011;51761;42.126;24.752;2024-03-02T12:28:01;37.20;;;21.13;;
65174;SDS011;51761;42.126;24.752;2024-03-02T12:30:28;37.13;;;21.75;;
65174;SDS011;51761;42.126;24.752;2024-03-02T12:32:54;36.85;;;18.73;;
65174;SDS011;51761;42.126;24.752;2024-03-02T12:35:19;39.08;;;22.50;;
65174;SDS011;51761;42.126;24.752;2024-03-02T12:37:49;39.67;;;22.13;;
65174;SDS011;51761;42.126;24.752;2024-03-02T12:40:15;36.88;;;20.70;;
65174;SDS011;51761;42.126;24.752;2024-03-02T12:42:42;30.55;;;18.42;;
65174;SDS011;51761;42.126;24.752;2024-03-02T12:45:08;35.17;;;19.88;;
65174;SDS011;51761;42.126;24.752;2024-03-02T12:47:34;34.33;;;20.55;;
65174;SDS011;51761;42.126;24.752;2024-03-02T12:49:59;35.60;;;21.15;;
65174;SDS011;51761;42.126;24.752;2024-03-02T12:52:24;42.42;;;23.13;;
65174;SDS011;51761;42.126;24.752;2024-03-02T12:54:50;39.92;;;23.50;;
65174;SDS011;51761;42.126;24.752;2024-03-02T12:57:18;48.22;;;23.45;;
65174;SDS011;51761;42.126;24.752;2024-03-02T12:59:47;45.80;;;24.65;;
65174;SDS011;51761;42.126;24.752;2024-03-02T13:02:19;44.05;;;24.30;;
65174;SDS011;51761;42.126;24.752;2024-03-02T13:04:44;36.58;;;18.98;;
65174;SDS011;51761;42.126;24.752;2024-03-02T13:07:17;36.97;;;20.58;;
65174;SDS011;51761;42.126;24.752;2024-03-02T13:09:43;41.80;;;22.20;;
65174;SDS011;51761;42.126;24.752;2024-03-02T13:12:10;42.05;;;24.50;;
65174;SDS011;51761;42.126;24.752;2024-03-02T13:14:36;41.17;;;22.55;;
65174;SDS011;51761;42.126;24.752;2024-03-02T13:17:01;41.70;;;24.15;;
65174;SDS011;51761;42.126;24.752;2024-03-02T13:19:29;41.92;;;23.10;;
65174;SDS011;51761;42.126;24.752;2024-03-02T13:21:56;44.25;;;24.73;;
65174;SDS011;51761;42.126;24.752;2024-03-02T13:24:22;39.05;;;23.98;;
65174;SDS011;51761;42.126;24.752;2024-03-02T13:26:50;38.65;;;22.75;;
65174;SDS011;51761;42.126;24.752;2024-03-02T13:29:20;34.63;;;20.45;;
65174;SDS011;51761;42.126;24.752;2024-03-02T13:31:46;37.03;;;21.52;;
65174;SDS011;51761;42.126;24.752;2024-03-02T13:34:11;36.53;;;21.20;;
65174;SDS011;51761;42.126;24.752;2024-03-02T13:36:37;35.42;;;21.23;;
65174;SDS011;51761;42.126;24.752;2024-03-02T13:39:03;36.70;;;21.30;;
65174;SDS011;51761;42.126;24.752;2024-03-02T13:41:30;37.90;;;22.33;;
65174;SDS011;51761;42.126;24.752;2024-03-02T13:43:55;35.67;;;20.35;;
65174;SDS011;51761;42.126;24.752;2024-03-02T13:46:21;34.65;;;21.15;;
65174;SDS011;51761;42.126;24.752;2024-03-02T13:48:47;37.15;;;22.38;;
65174;SDS011;51761;42.126;24.752;2024-03-02T13:51:12;42.67;;;24.70;;
65174;SDS011;51761;42.126;24.752;2024-03-02T13:53:37;41.00;;;24.38;;
65174;SDS011;51761;42.126;24.752;2024-03-02T13:56:02;41.13;;;24.17;;
65174;SDS011;51761;42.126;24.752;2024-03-02T13:58:28;37.67;;;22.08;;
65174;SDS011;51761;42.126;24.752;2024-03-02T14:00:53;35.05;;;20.95;;
65174;SDS011;51761;42.126;24.752;2024-03-02T14:03:19;38.42;;;22.83;;
65174;SDS011;51761;42.126;24.752;2024-03-02T14:05:44;36.17;;;21.08;;
65174;SDS011;51761;42.126;24.752;2024-03-02T14:08:11;35.25;;;20.67;;
65174;SDS011;51761;42.126;24.752;2024-03-02T14:10:36;35.85;;;20.30;;